Sugartown, Louisiana
Current Conditions -  °F | °C
As of 12:58 AM on Sunday 23 Nov 2014 (Local Time) from KPOE Reporting Station
Light Rain Light Rain  
Wind Chill: 64°   Ceiling: 600
Heat Index: 64°   Visibility: 9mi
Dew Point: 62°   Wind: 13mph
Humidity: 95%   Direction: 150°SSE
Pressure: 29.76"   Gusts: NA
Location:  30.84°N, 93.02°W
Report Text: KPOE 230658Z AUTO 15011KT 9SM -RA OVC006 18/17 A2976 RMK AO2 LTG DSNT S RAB0650 SLP078 P0001 T01770169
Loading
Personal Weather Stations






























Interactive Weather Map New forecast layout! Learn more

10-Day Weather Forecast

Advertisements
Track Severe Weather on mobile